Time;durP1;ratioP1;P1;durP2;ratioP2;P2;SDS_P1;SDS_P2;PMS_P1;PMS_P2;Temp;Humidity;BMP_temperature;BMP_pressure;BME280_temperature;BME280_humidity;BME280_pressure;Samples;Min_cycle;Max_cycle;Signal;HPM_P1;HPM_P2
2024/03/20 00:01:07;;;;;;;17.75;10.60;;;;;;;;;;5046591;28;20423;-78
2024/03/20 00:03:32;;;;;;;19.70;11.40;;;;;;;;;;5046165;28;20040;-78
2024/03/20 00:05:57;;;;;;;21.10;10.70;;;;;;;;;;5052595;28;20029;-78
2024/03/20 00:08:22;;;;;;;17.63;10.02;;;;;;;;;;5049952;28;20098;-78
2024/03/20 00:10:48;;;;;;;16.13;9.88;;;;;;;;;;5048420;28;20404;-78
2024/03/20 00:13:13;;;;;;;15.95;9.27;;;;;;;;;;5046002;28;20025;-78
2024/03/20 00:15:38;;;;;;;15.15;9.48;;;;;;;;;;5025664;28;20106;-78
2024/03/20 00:18:03;;;;;;;16.80;10.43;;;;;;;;;;5052937;28;20104;-78
2024/03/20 00:20:29;;;;;;;17.60;10.82;;;;;;;;;;5049938;28;20037;-79
2024/03/20 00:22:54;;;;;;;18.55;11.00;;;;;;;;;;5049501;28;20036;-79
2024/03/20 00:25:19;;;;;;;16.02;9.90;;;;;;;;;;5033915;28;20043;-79
2024/03/20 00:27:44;;;;;;;13.50;8.40;;;;;;;;;;5049073;28;20048;-80
2024/03/20 00:30:10;;;;;;;15.68;9.40;;;;;;;;;;5043980;28;20035;-79
2024/03/20 00:32:35;;;;;;;14.85;8.90;;;;;;;;;;5049144;28;20029;-79
2024/03/20 00:35:00;;;;;;;16.10;10.25;;;;;;;;;;5051055;28;20039;-79
2024/03/20 00:37:25;;;;;;;13.55;8.68;;;;;;;;;;5049376;28;20169;-79
2024/03/20 00:39:51;;;;;;;13.45;8.50;;;;;;;;;;5047669;28;20031;-79
2024/03/20 00:42:19;;;;;;;17.02;8.93;;;;;;;;;;5043886;28;20078;-79
2024/03/20 00:44:44;;;;;;;17.77;9.35;;;;;;;;;;5051593;28;20041;-80
2024/03/20 00:47:09;;;;;;;14.50;9.02;;;;;;;;;;5051553;28;20048;-82
2024/03/20 00:49:35;;;;;;;16.25;9.50;;;;;;;;;;5048690;28;20033;-80
2024/03/20 00:52:00;;;;;;;13.93;7.70;;;;;;;;;;5034689;28;20032;-84
2024/03/20 00:54:25;;;;;;;17.75;9.40;;;;;;;;;;5044692;28;20025;-80
2024/03/20 00:56:51;;;;;;;15.45;9.32;;;;;;;;;;5034689;28;20068;-80
2024/03/20 00:59:16;;;;;;;14.45;9.10;;;;;;;;;;5048606;28;20090;-82
2024/03/20 01:01:41;;;;;;;14.70;8.80;;;;;;;;;;5050278;28;20141;-80
2024/03/20 01:04:07;;;;;;;13.90;8.65;;;;;;;;;;5049113;28;20485;-81
2024/03/20 01:06:32;;;;;;;15.40;9.93;;;;;;;;;;5030125;28;20036;-81
2024/03/20 01:08:57;;;;;;;14.60;8.25;;;;;;;;;;5046312;28;20029;-80
2024/03/20 01:11:22;;;;;;;14.10;8.57;;;;;;;;;;5030048;28;20034;-81
2024/03/20 01:13:47;;;;;;;16.38;10.35;;;;;;;;;;5050891;28;20115;-79
2024/03/20 01:16:13;;;;;;;14.30;8.75;;;;;;;;;;5034454;28;20028;-79
2024/03/20 01:18:38;;;;;;;13.32;7.35;;;;;;;;;;5048641;28;20021;-78
2024/03/20 01:21:04;;;;;;;16.25;9.80;;;;;;;;;;5034595;28;20025;-79
2024/03/20 01:23:29;;;;;;;15.00;10.68;;;;;;;;;;5042474;28;20056;-78
2024/03/20 01:25:55;;;;;;;17.55;9.43;;;;;;;;;;5043944;28;20036;-78
2024/03/20 01:28:20;;;;;;;12.95;7.80;;;;;;;;;;5051084;28;20025;-78
2024/03/20 01:30:45;;;;;;;15.88;9.90;;;;;;;;;;5033520;28;20109;-78
2024/03/20 01:33:11;;;;;;;14.85;8.75;;;;;;;;;;5048574;28;20515;-78
2024/03/20 01:35:36;;;;;;;15.75;9.57;;;;;;;;;;5044119;28;20122;-77
2024/03/20 01:38:01;;;;;;;17.63;10.32;;;;;;;;;;5052207;28;20036;-78
2024/03/20 01:40:26;;;;;;;18.77;10.52;;;;;;;;;;5033909;28;20043;-78
2024/03/20 01:42:55;;;;;;;14.48;9.00;;;;;;;;;;5049754;28;20095;-78
2024/03/20 01:45:21;;;;;;;14.43;9.73;;;;;;;;;;5033218;28;20029;-78
2024/03/20 01:47:47;;;;;;;15.65;9.23;;;;;;;;;;5048745;28;20083;-78
2024/03/20 01:50:13;;;;;;;14.25;8.60;;;;;;;;;;5016771;28;20116;-78
2024/03/20 01:52:52;;;;;;;15.20;8.85;;;;;;;;;;5042244;28;20090;-78
2024/03/20 01:55:19;;;;;;;17.50;9.80;;;;;;;;;;5047922;28;20032;-78
2024/03/20 01:57:44;;;;;;;12.98;7.70;;;;;;;;;;5049976;28;20509;-78
2024/03/20 02:00:13;;;;;;;14.63;8.55;;;;;;;;;;5048437;28;20036;-78
2024/03/20 02:02:38;;;;;;;15.77;9.23;;;;;;;;;;5044371;28;20038;-78
2024/03/20 02:05:04;;;;;;;14.38;8.13;;;;;;;;;;5027738;28;20024;-78
2024/03/20 02:07:29;;;;;;;15.98;10.05;;;;;;;;;;5048143;28;20047;-78
2024/03/20 02:09:54;;;;;;;18.58;10.23;;;;;;;;;;5050751;28;20059;-78
2024/03/20 02:12:19;;;;;;;17.30;10.32;;;;;;;;;;5048947;28;20327;-78
2024/03/20 02:14:44;;;;;;;14.07;8.63;;;;;;;;;;5047839;28;20056;-78
2024/03/20 02:17:10;;;;;;;12.88;7.90;;;;;;;;;;5048974;28;20092;-78
2024/03/20 02:19:35;;;;;;;15.10;8.93;;;;;;;;;;5042239;28;20112;-78
2024/03/20 02:22:00;;;;;;;15.88;8.95;;;;;;;;;;5043350;28;20029;-78
2024/03/20 02:24:26;;;;;;;15.93;9.80;;;;;;;;;;5049749;28;20029;-78
2024/03/20 02:26:51;;;;;;;14.35;8.32;;;;;;;;;;5032017;28;20029;-78
2024/03/20 02:29:16;;;;;;;18.13;9.20;;;;;;;;;;5046492;28;20484;-78
2024/03/20 02:31:42;;;;;;;20.48;10.43;;;;;;;;;;5044137;28;20067;-78
2024/03/20 02:34:07;;;;;;;16.05;9.75;;;;;;;;;;5043120;28;20021;-78
2024/03/20 02:36:32;;;;;;;15.80;10.20;;;;;;;;;;5043936;28;20478;-78
2024/03/20 02:38:57;;;;;;;17.90;10.35;;;;;;;;;;5053516;28;20082;-78
2024/03/20 02:41:23;;;;;;;19.00;10.82;;;;;;;;;;5036672;28;20062;-78
2024/03/20 02:43:48;;;;;;;21.35;11.57;;;;;;;;;;5049162;28;20044;-78
2024/03/20 02:46:14;;;;;;;18.27;9.85;;;;;;;;;;5014722;28;20033;-79
2024/03/20 02:48:39;;;;;;;15.68;9.77;;;;;;;;;;5047680;28;20383;-78
2024/03/20 02:51:04;;;;;;;16.15;10.27;;;;;;;;;;5050740;28;20033;-78
2024/03/20 02:53:29;;;;;;;14.63;8.60;;;;;;;;;;5051397;28;20078;-78
2024/03/20 02:55:54;;;;;;;15.40;8.48;;;;;;;;;;5051153;28;20033;-78
2024/03/20 02:58:20;;;;;;;15.90;8.70;;;;;;;;;;5035773;28;20029;-78
2024/03/20 03:00:45;;;;;;;16.33;9.73;;;;;;;;;;5036097;28;20022;-79
2024/03/20 03:03:10;;;;;;;16.10;10.00;;;;;;;;;;5049050;28;20029;-79
2024/03/20 03:05:36;;;;;;;15.93;9.60;;;;;;;;;;5036408;28;20032;-78
2024/03/20 03:08:01;;;;;;;17.25;10.85;;;;;;;;;;5053597;28;20021;-78
2024/03/20 03:10:27;;;;;;;18.60;9.90;;;;;;;;;;5049701;28;20033;-78
2024/03/20 03:12:52;;;;;;;17.63;10.57;;;;;;;;;;5049361;28;20029;-78
2024/03/20 03:15:18;;;;;;;16.10;10.20;;;;;;;;;;5034526;28;20036;-78
2024/03/20 03:17:47;;;;;;;16.38;9.27;;;;;;;;;;5052714;28;20029;-79
2024/03/20 03:20:16;;;;;;;16.17;9.40;;;;;;;;;;5052697;28;20118;-78
2024/03/20 03:22:41;;;;;;;17.55;10.18;;;;;;;;;;5034228;28;20033;-78
2024/03/20 03:25:08;;;;;;;16.75;8.35;;;;;;;;;;5049454;28;20155;-78
2024/03/20 03:27:33;;;;;;;15.60;9.73;;;;;;;;;;5051052;28;20033;-79
2024/03/20 03:29:58;;;;;;;16.98;10.10;;;;;;;;;;5036034;28;20048;-78
2024/03/20 03:32:24;;;;;;;14.48;9.13;;;;;;;;;;5036285;28;20041;-78
2024/03/20 03:34:49;;;;;;;16.30;10.15;;;;;;;;;;5051306;28;20037;-78
2024/03/20 03:37:14;;;;;;;18.60;10.05;;;;;;;;;;5052740;28;20025;-78
2024/03/20 03:39:39;;;;;;;16.30;9.68;;;;;;;;;;5047025;28;20029;-78
2024/03/20 03:42:04;;;;;;;17.63;9.65;;;;;;;;;;5047943;28;20370;-80
2024/03/20 03:44:30;;;;;;;15.95;9.02;;;;;;;;;;5042708;28;20048;-82
2024/03/20 03:46:55;;;;;;;16.40;10.00;;;;;;;;;;5053898;28;20041;-80
2024/03/20 03:49:20;;;;;;;16.15;9.20;;;;;;;;;;5033705;28;20033;-80
2024/03/20 03:51:45;;;;;;;21.60;9.13;;;;;;;;;;5048846;28;20041;-79
2024/03/20 03:54:10;;;;;;;15.18;8.88;;;;;;;;;;5048216;28;20025;-78
2024/03/20 03:56:36;;;;;;;15.93;9.98;;;;;;;;;;5047748;28;20626;-78
2024/03/20 03:59:01;;;;;;;17.15;9.82;;;;;;;;;;5046164;28;20082;-78
2024/03/20 04:01:26;;;;;;;17.75;9.90;;;;;;;;;;5052436;28;20037;-78
2024/03/20 04:03:51;;;;;;;16.48;9.45;;;;;;;;;;5050017;28;20033;-78
2024/03/20 04:06:17;;;;;;;16.05;10.50;;;;;;;;;;5049145;28;20041;-80
2024/03/20 04:08:42;;;;;;;16.88;9.27;;;;;;;;;;5048150;28;20041;-80
2024/03/20 04:11:07;;;;;;;17.15;10.52;;;;;;;;;;5046551;28;20036;-81
2024/03/20 04:13:32;;;;;;;18.77;10.32;;;;;;;;;;5045549;28;20111;-81
2024/03/20 04:15:58;;;;;;;14.85;8.63;;;;;;;;;;5052051;28;20100;-78
2024/03/20 04:18:23;;;;;;;16.10;9.68;;;;;;;;;;5035296;28;20117;-78
2024/03/20 04:20:48;;;;;;;16.88;10.05;;;;;;;;;;5047495;28;20087;-78
2024/03/20 04:23:14;;;;;;;17.13;10.02;;;;;;;;;;5046646;28;20037;-78
2024/03/20 04:25:39;;;;;;;17.13;9.93;;;;;;;;;;5042743;28;20148;-78
2024/03/20 04:28:05;;;;;;;17.17;9.23;;;;;;;;;;5051190;28;20536;-77
2024/03/20 04:30:30;;;;;;;18.85;10.50;;;;;;;;;;5031199;28;20406;-77
2024/03/20 04:32:55;;;;;;;19.15;11.32;;;;;;;;;;5048110;28;20474;-78
2024/03/20 04:35:20;;;;;;;21.98;12.20;;;;;;;;;;5046410;28;20044;-77
2024/03/20 04:37:46;;;;;;;21.38;11.38;;;;;;;;;;5046978;28;20383;-78
2024/03/20 04:40:11;;;;;;;17.83;11.38;;;;;;;;;;5025666;28;20410;-77
2024/03/20 04:42:37;;;;;;;15.55;9.63;;;;;;;;;;5048219;28;20615;-78
2024/03/20 04:45:04;;;;;;;16.48;9.68;;;;;;;;;;5049936;28;20112;-77
2024/03/20 04:47:29;;;;;;;16.83;10.27;;;;;;;;;;5031023;28;20048;-79
2024/03/20 04:49:54;;;;;;;17.80;10.50;;;;;;;;;;5047741;28;20108;-78
2024/03/20 04:52:20;;;;;;;17.25;11.10;;;;;;;;;;5045301;28;20291;-77
2024/03/20 04:54:45;;;;;;;20.13;10.48;;;;;;;;;;5043001;28;20025;-78
2024/03/20 04:57:10;;;;;;;20.45;10.95;;;;;;;;;;5052066;28;20440;-77
2024/03/20 04:59:35;;;;;;;19.05;11.18;;;;;;;;;;5033230;28;20378;-78
2024/03/20 05:02:01;;;;;;;18.48;9.18;;;;;;;;;;5034019;28;20041;-77
2024/03/20 05:04:27;;;;;;;19.63;9.43;;;;;;;;;;5045949;28;20025;-78
2024/03/20 05:06:52;;;;;;;17.60;9.57;;;;;;;;;;5033995;28;20475;-78
2024/03/20 05:09:17;;;;;;;19.38;10.23;;;;;;;;;;5043818;28;20047;-77
2024/03/20 05:11:42;;;;;;;17.55;11.43;;;;;;;;;;5032848;28;20033;-78
2024/03/20 05:14:08;;;;;;;18.17;10.38;;;;;;;;;;5048653;28;20029;-78
2024/03/20 05:16:33;;;;;;;17.70;9.55;;;;;;;;;;5049160;28;20025;-78
2024/03/20 05:18:58;;;;;;;19.83;11.43;;;;;;;;;;5045863;28;20707;-78
2024/03/20 05:21:23;;;;;;;19.02;10.18;;;;;;;;;;5043870;28;20037;-78
2024/03/20 05:23:48;;;;;;;23.20;11.23;;;;;;;;;;5037344;28;20044;-78
2024/03/20 05:26:14;;;;;;;21.05;11.65;;;;;;;;;;5031707;28;20478;-77
2024/03/20 05:28:40;;;;;;;19.73;10.50;;;;;;;;;;5031440;28;20041;-78
2024/03/20 05:31:05;;;;;;;17.83;9.93;;;;;;;;;;5046416;28;20025;-78
2024/03/20 05:33:30;;;;;;;19.30;11.50;;;;;;;;;;5045105;28;20485;-79
2024/03/20 05:35:55;;;;;;;26.92;13.70;;;;;;;;;;5043042;28;20101;-79
2024/03/20 05:38:21;;;;;;;21.63;13.20;;;;;;;;;;5045180;28;20036;-79
2024/03/20 05:40:46;;;;;;;22.13;12.05;;;;;;;;;;5043441;28;20080;-79
2024/03/20 05:43:11;;;;;;;21.20;11.73;;;;;;;;;;5045179;28;20049;-80
2024/03/20 05:45:36;;;;;;;18.65;10.30;;;;;;;;;;5025384;28;20037;-78
2024/03/20 05:48:02;;;;;;;21.00;11.80;;;;;;;;;;5046634;28;20039;-78
2024/03/20 05:50:27;;;;;;;22.55;12.70;;;;;;;;;;5033649;28;20547;-78
2024/03/20 05:52:53;;;;;;;18.60;11.05;;;;;;;;;;5049873;28;20041;-78
2024/03/20 05:55:19;;;;;;;19.15;10.90;;;;;;;;;;5048529;28;20036;-78
2024/03/20 05:57:50;;;;;;;15.25;9.32;;;;;;;;;;5048530;28;20064;-78
2024/03/20 06:00:15;;;;;;;18.10;9.88;;;;;;;;;;5029629;28;20029;-77
2024/03/20 06:02:41;;;;;;;18.85;10.65;;;;;;;;;;5027903;28;20159;-78
2024/03/20 06:05:07;;;;;;;16.88;10.07;;;;;;;;;;5045802;28;20024;-78
2024/03/20 06:07:32;;;;;;;17.30;9.90;;;;;;;;;;5047438;28;20040;-77
2024/03/20 06:09:58;;;;;;;21.45;12.00;;;;;;;;;;5047311;28;20041;-77
2024/03/20 06:12:23;;;;;;;18.88;11.85;;;;;;;;;;5043384;28;20029;-78
2024/03/20 06:14:48;;;;;;;16.73;10.43;;;;;;;;;;5042169;28;20122;-78
2024/03/20 06:17:15;;;;;;;16.80;9.57;;;;;;;;;;5042601;28;20068;-77
2024/03/20 06:19:40;;;;;;;15.65;10.02;;;;;;;;;;5046706;28;20037;-78
2024/03/20 06:22:05;;;;;;;17.33;10.20;;;;;;;;;;5032469;28;20025;-77
2024/03/20 06:24:31;;;;;;;17.88;10.43;;;;;;;;;;5045536;28;20044;-77
2024/03/20 06:26:56;;;;;;;15.30;9.90;;;;;;;;;;5046871;28;20029;-78
2024/03/20 06:29:21;;;;;;;18.10;10.32;;;;;;;;;;5043456;28;20039;-78
2024/03/20 06:31:46;;;;;;;18.48;10.43;;;;;;;;;;5041530;28;20049;-77
2024/03/20 06:34:11;;;;;;;17.55;10.90;;;;;;;;;;5049292;28;20029;-78
2024/03/20 06:36:38;;;;;;;15.68;10.23;;;;;;;;;;5048492;28;20029;-78
2024/03/20 06:39:07;;;;;;;17.33;10.43;;;;;;;;;;5032093;28;20033;-78
2024/03/20 06:41:33;;;;;;;14.90;9.13;;;;;;;;;;5043391;28;20520;-77
2024/03/20 06:44:00;;;;;;;15.10;9.98;;;;;;;;;;5043980;28;20036;-77
2024/03/20 06:46:25;;;;;;;14.45;9.70;;;;;;;;;;5042540;28;20515;-78
2024/03/20 06:48:52;;;;;;;14.90;9.68;;;;;;;;;;5030738;28;20116;-77
2024/03/20 06:51:20;;;;;;;18.88;10.55;;;;;;;;;;5047550;28;20167;-78
2024/03/20 06:53:45;;;;;;;23.63;13.82;;;;;;;;;;5030361;28;20025;-78
2024/03/20 06:56:11;;;;;;;23.83;14.75;;;;;;;;;;5026937;28;20563;-77
2024/03/20 06:58:36;;;;;;;19.60;12.45;;;;;;;;;;5029850;28;20118;-77
2024/03/20 07:01:02;;;;;;;20.17;11.75;;;;;;;;;;5046652;28;20155;-77
2024/03/20 07:03:28;;;;;;;19.33;10.55;;;;;;;;;;5048365;28;20033;-77
2024/03/20 07:05:54;;;;;;;18.98;11.80;;;;;;;;;;5031891;28;20033;-78
2024/03/20 07:08:20;;;;;;;16.10;10.13;;;;;;;;;;5040872;28;20036;-78
2024/03/20 07:10:45;;;;;;;14.50;9.98;;;;;;;;;;5042349;28;20121;-77
2024/03/20 07:13:10;;;;;;;17.58;11.25;;;;;;;;;;5032297;28;20029;-77
2024/03/20 07:15:36;;;;;;;16.55;10.32;;;;;;;;;;5028476;28;20033;-78
2024/03/20 07:18:02;;;;;;;17.00;10.57;;;;;;;;;;5033599;28;20026;-78
2024/03/20 07:20:27;;;;;;;17.48;10.77;;;;;;;;;;5046333;28;20036;-78
2024/03/20 07:22:52;;;;;;;15.77;10.27;;;;;;;;;;5044469;28;20038;-78
2024/03/20 07:25:18;;;;;;;18.20;11.13;;;;;;;;;;5045430;28;20497;-78
2024/03/20 07:27:43;;;;;;;17.90;11.52;;;;;;;;;;5045006;28;20041;-78
2024/03/20 07:30:08;;;;;;;16.42;10.82;;;;;;;;;;5035691;28;20024;-78
2024/03/20 07:32:35;;;;;;;17.70;10.98;;;;;;;;;;5052029;28;20043;-79
2024/03/20 07:35:00;;;;;;;19.23;11.63;;;;;;;;;;5047666;28;20056;-78
2024/03/20 07:37:26;;;;;;;14.45;9.52;;;;;;;;;;5032761;28;20025;-79
2024/03/20 07:39:51;;;;;;;15.82;9.77;;;;;;;;;;5050043;28;20052;-78
2024/03/20 07:42:16;;;;;;;23.50;13.98;;;;;;;;;;5045894;28;20025;-79
2024/03/20 07:44:42;;;;;;;47.40;19.90;;;;;;;;;;5051430;28;20064;-79
2024/03/20 07:47:08;;;;;;;42.38;22.58;;;;;;;;;;5051412;28;20371;-79
2024/03/20 07:49:33;;;;;;;31.52;18.42;;;;;;;;;;5029580;28;20619;-79
2024/03/20 07:51:58;;;;;;;25.05;14.32;;;;;;;;;;5048242;28;20040;-79
2024/03/20 07:54:24;;;;;;;17.50;11.60;;;;;;;;;;5026915;28;20025;-79
2024/03/20 07:56:53;;;;;;;17.73;10.85;;;;;;;;;;5050203;28;20037;-79
2024/03/20 07:59:18;;;;;;;20.35;12.80;;;;;;;;;;5051945;28;20033;-79
2024/03/20 08:01:44;;;;;;;18.50;11.82;;;;;;;;;;5023986;28;20037;-79
2024/03/20 08:04:10;;;;;;;17.45;9.38;;;;;;;;;;5048593;28;20417;-79
2024/03/20 08:06:35;;;;;;;15.65;9.15;;;;;;;;;;5035040;28;20044;-79
2024/03/20 08:09:00;;;;;;;15.00;9.55;;;;;;;;;;5046036;28;20427;-79
2024/03/20 08:11:25;;;;;;;16.88;11.23;;;;;;;;;;5053060;28;20056;-79
2024/03/20 08:13:51;;;;;;;16.77;10.55;;;;;;;;;;5049840;28;20025;-79
2024/03/20 08:16:17;;;;;;;15.40;9.93;;;;;;;;;;5050044;28;20036;-79
2024/03/20 08:18:42;;;;;;;17.52;11.25;;;;;;;;;;5045771;28;20114;-78
2024/03/20 08:21:09;;;;;;;14.93;9.98;;;;;;;;;;5046784;28;20028;-79
2024/03/20 08:23:35;;;;;;;14.90;9.07;;;;;;;;;;5031452;28;20021;-79
2024/03/20 08:26:01;;;;;;;18.13;10.95;;;;;;;;;;5051607;28;20559;-79
2024/03/20 08:28:26;;;;;;;19.33;12.00;;;;;;;;;;5050798;28;20044;-79
2024/03/20 08:30:51;;;;;;;16.40;10.25;;;;;;;;;;5047919;28;20069;-79
2024/03/20 08:33:17;;;;;;;21.10;12.45;;;;;;;;;;5046995;28;20033;-78
2024/03/20 08:35:53;;;;;;;23.23;13.40;;;;;;;;;;5042827;28;20033;-79
2024/03/20 08:38:18;;;;;;;22.52;12.32;;;;;;;;;;5052485;28;20029;-79
2024/03/20 08:40:44;;;;;;;20.60;13.95;;;;;;;;;;5050708;28;20036;-79
2024/03/20 08:43:10;;;;;;;20.05;11.10;;;;;;;;;;5035077;28;20055;-79
2024/03/20 08:45:35;;;;;;;16.20;10.65;;;;;;;;;;5046760;28;20068;-79
2024/03/20 08:48:00;;;;;;;19.73;12.55;;;;;;;;;;5046778;28;20030;-79
2024/03/20 08:50:25;;;;;;;24.35;15.38;;;;;;;;;;5025542;28;20029;-79
2024/03/20 08:52:50;;;;;;;21.40;12.52;;;;;;;;;;5051113;28;20485;-79
2024/03/20 08:55:16;;;;;;;18.67;11.50;;;;;;;;;;5050983;28;20127;-79
2024/03/20 08:57:41;;;;;;;14.13;9.18;;;;;;;;;;5047304;28;20025;-79
2024/03/20 09:00:11;;;;;;;17.55;10.85;;;;;;;;;;5035279;28;20428;-79
2024/03/20 09:02:36;;;;;;;18.80;11.70;;;;;;;;;;5046298;28;20033;-78
2024/03/20 09:05:02;;;;;;;17.10;10.05;;;;;;;;;;5031199;28;20773;-79
2024/03/20 09:07:27;;;;;;;16.35;9.88;;;;;;;;;;5048323;28;20076;-79
2024/03/20 09:09:52;;;;;;;15.90;9.68;;;;;;;;;;5047549;28;20037;-78
2024/03/20 09:12:17;;;;;;;19.30;11.07;;;;;;;;;;5047175;28;20029;-78
2024/03/20 09:14:43;;;;;;;16.25;9.73;;;;;;;;;;5044580;28;20044;-78
2024/03/20 09:17:08;;;;;;;18.55;11.32;;;;;;;;;;5033843;28;20544;-78
2024/03/20 09:19:33;;;;;;;18.83;10.52;;;;;;;;;;5034248;28;20033;-79
2024/03/20 09:21:58;;;;;;;17.92;9.40;;;;;;;;;;5049883;28;20029;-78
2024/03/20 09:24:24;;;;;;;16.83;9.65;;;;;;;;;;5049418;28;20024;-78
2024/03/20 09:26:51;;;;;;;13.68;9.38;;;;;;;;;;5046114;28;20505;-78
2024/03/20 09:29:16;;;;;;;14.98;9.68;;;;;;;;;;5047190;28;20079;-79
2024/03/20 09:31:41;;;;;;;16.35;10.13;;;;;;;;;;5031445;28;20048;-78
2024/03/20 09:34:06;;;;;;;14.10;8.77;;;;;;;;;;5043758;28;20474;-78
2024/03/20 09:36:32;;;;;;;19.73;11.05;;;;;;;;;;5049955;28;20029;-79
2024/03/20 09:38:57;;;;;;;15.77;9.73;;;;;;;;;;5047727;28;20110;-78
2024/03/20 09:41:23;;;;;;;14.60;9.18;;;;;;;;;;5042218;28;20029;-78
2024/03/20 09:43:52;;;;;;;14.77;9.52;;;;;;;;;;5045048;28;20052;-78
2024/03/20 09:46:19;;;;;;;14.18;9.95;;;;;;;;;;5043748;28;20461;-79
2024/03/20 09:48:45;;;;;;;12.88;9.00;;;;;;;;;;5049608;28;20041;-78
2024/03/20 09:51:11;;;;;;;14.60;8.25;;;;;;;;;;5043130;28;20529;-79
2024/03/20 09:53:36;;;;;;;14.55;9.45;;;;;;;;;;5041650;28;20043;-79
2024/03/20 09:56:09;;;;;;;14.73;8.40;;;;;;;;;;5046620;28;20025;-79
2024/03/20 09:58:36;;;;;;;12.23;7.70;;;;;;;;;;5045502;28;20040;-80
2024/03/20 10:01:01;;;;;;;13.07;8.35;;;;;;;;;;5042219;28;20018;-79
2024/03/20 10:03:26;;;;;;;12.63;8.07;;;;;;;;;;5045794;28;20036;-79
2024/03/20 10:05:52;;;;;;;12.77;7.70;;;;;;;;;;5027238;28;20072;-81
2024/03/20 10:08:17;;;;;;;15.52;9.73;;;;;;;;;;5046317;28;20036;-80
2024/03/20 10:10:43;;;;;;;14.75;10.00;;;;;;;;;;5030720;28;20048;-80
2024/03/20 10:13:11;;;;;;;18.13;9.05;;;;;;;;;;5044219;28;20147;-80
2024/03/20 10:15:37;;;;;;;12.30;8.45;;;;;;;;;;5046660;28;20549;-80
2024/03/20 10:18:03;;;;;;;15.55;8.55;;;;;;;;;;5046549;28;20025;-80
2024/03/20 10:20:28;;;;;;;11.70;8.25;;;;;;;;;;5047352;28;20369;-80
2024/03/20 10:22:54;;;;;;;12.85;8.40;;;;;;;;;;5044777;28;20112;-79
2024/03/20 10:25:21;;;;;;;13.30;8.85;;;;;;;;;;5046759;28;20037;-80
2024/03/20 10:27:48;;;;;;;14.57;8.50;;;;;;;;;;5033222;28;20420;-80
2024/03/20 10:30:21;;;;;;;13.65;9.27;;;;;;;;;;5034484;28;20695;-80
2024/03/20 10:32:52;;;;;;;11.63;7.50;;;;;;;;;;5035635;28;20033;-79
2024/03/20 10:35:18;;;;;;;14.68;8.43;;;;;;;;;;5079896;22;20054;-74
2024/03/20 10:37:44;;;;;;;13.77;8.57;;;;;;;;;;5070420;28;20062;-74
2024/03/20 10:40:30;;;;;;;32.83;23.55;;;;;;;;;;5075445;28;20098;-74
2024/03/20 10:42:55;;;;;;;11.75;8.50;;;;;;;;;;5075240;28;20131;-74
2024/03/20 10:45:22;;;;;;;13.70;8.43;;;;;;;;;;5047828;28;20120;-74
2024/03/20 10:47:47;;;;;;;14.88;9.02;;;;;;;;;;5044848;28;20030;-74
2024/03/20 10:50:16;;;;;;;11.10;7.60;;;;;;;;;;5042449;28;20044;-74
2024/03/20 10:52:42;;;;;;;13.38;8.93;;;;;;;;;;5042019;28;20034;-74
2024/03/20 10:55:10;;;;;;;14.55;10.13;;;;;;;;;;5045203;28;20161;-74
2024/03/20 10:57:36;;;;;;;11.75;7.78;;;;;;;;;;5043770;28;20092;-74
2024/03/20 11:00:03;;;;;;;14.75;9.32;;;;;;;;;;5047931;28;20446;-73
2024/03/20 11:02:29;;;;;;;14.57;8.77;;;;;;;;;;5046405;28;20517;-74
2024/03/20 11:04:55;;;;;;;13.23;7.53;;;;;;;;;;5046784;28;20037;-76
2024/03/20 11:07:29;;;;;;;12.13;7.35;;;;;;;;;;5049562;28;20017;-76
2024/03/20 11:09:58;;;;;;;10.23;7.22;;;;;;;;;;5045088;28;20044;-74
2024/03/20 11:12:30;;;;;;;11.48;8.10;;;;;;;;;;5051507;28;20048;-74
2024/03/20 11:15:14;;;;;;;14.15;9.40;;;;;;;;;;5045385;28;20021;-74
2024/03/20 11:17:40;;;;;;;12.18;7.32;;;;;;;;;;5050174;28;20116;-74
2024/03/20 11:20:09;;;;;;;15.60;8.88;;;;;;;;;;5051804;28;20108;-73
2024/03/20 11:22:34;;;;;;;12.27;6.93;;;;;;;;;;5045667;28;20111;-74
2024/03/20 11:24:59;;;;;;;14.52;9.05;;;;;;;;;;5044315;28;20116;-73
2024/03/20 11:27:25;;;;;;;11.00;7.07;;;;;;;;;;5050762;28;20119;-73
2024/03/20 11:29:51;;;;;;;13.70;7.50;;;;;;;;;;5032780;28;20075;-73
2024/03/20 11:32:20;;;;;;;22.52;9.07;;;;;;;;;;5047483;28;20451;-74
2024/03/20 11:34:45;;;;;;;16.23;7.38;;;;;;;;;;5042973;28;20041;-73
2024/03/20 11:37:15;;;;;;;14.05;6.50;;;;;;;;;;5033478;28;20037;-73
2024/03/20 11:39:43;;;;;;;10.23;6.00;;;;;;;;;;5050958;28;20025;-73
2024/03/20 11:42:15;;;;;;;11.70;7.75;;;;;;;;;;5048503;28;20508;-73
2024/03/20 11:44:40;;;;;;;;;;;;;;;;;;5049587;28;20061;-73
2024/03/20 11:47:11;;;;;;;13.47;7.70;;;;;;;;;;5051298;28;19997;-73
2024/03/20 11:49:42;;;;;;;16.10;8.52;;;;;;;;;;5048929;28;20284;-73
2024/03/20 11:52:17;;;;;;;11.32;7.25;;;;;;;;;;5040228;28;20033;-73
2024/03/20 11:54:44;;;;;;;11.02;7.00;;;;;;;;;;5046849;28;20082;-73
2024/03/20 11:57:11;;;;;;;15.68;9.90;;;;;;;;;;5048166;28;20037;-73
2024/03/20 11:59:36;;;;;;;12.90;8.77;;;;;;;;;;5045868;28;20106;-73
2024/03/20 12:02:02;;;;;;;16.95;10.13;;;;;;;;;;5046662;28;20052;-74
2024/03/20 12:04:28;;;;;;;18.05;10.43;;;;;;;;;;5042574;28;20033;-74
2024/03/20 12:06:53;;;;;;;11.63;7.82;;;;;;;;;;5045728;28;20401;-74
2024/03/20 12:09:19;;;;;;;12.98;8.38;;;;;;;;;;5049596;28;20039;-74
2024/03/20 12:11:44;;;;;;;14.15;8.85;;;;;;;;;;5045972;28;20112;-74
2024/03/20 12:14:10;;;;;;;13.52;7.97;;;;;;;;;;5045891;28;20028;-74
2024/03/20 12:16:36;;;;;;;12.82;7.75;;;;;;;;;;5044952;28;20522;-74
2024/03/20 12:19:01;;;;;;;14.23;9.45;;;;;;;;;;5045881;28;20036;-74
2024/03/20 12:21:27;;;;;;;14.60;9.07;;;;;;;;;;5050929;28;20056;-74
2024/03/20 12:23:53;;;;;;;13.82;9.25;;;;;;;;;;5047630;28;20033;-74
2024/03/20 12:26:25;;;;;;;13.98;8.88;;;;;;;;;;5047303;28;20558;-74
2024/03/20 12:28:51;;;;;;;14.60;9.63;;;;;;;;;;5044068;28;20087;-74
2024/03/20 12:31:17;;;;;;;15.50;9.02;;;;;;;;;;5043720;28;20033;-74
2024/03/20 12:33:44;;;;;;;12.48;8.20;;;;;;;;;;5042419;28;20505;-74
2024/03/20 12:36:10;;;;;;;15.23;8.52;;;;;;;;;;5033204;28;20021;-74
2024/03/20 12:38:35;;;;;;;14.10;9.10;;;;;;;;;;5046043;28;20452;-74
2024/03/20 12:41:01;;;;;;;13.32;9.70;;;;;;;;;;5046191;28;20200;-74
2024/03/20 12:43:26;;;;;;;16.25;9.30;;;;;;;;;;5043052;28;20080;-74
2024/03/20 12:45:51;;;;;;;13.45;8.38;;;;;;;;;;5025865;28;20030;-75
2024/03/20 12:48:18;;;;;;;14.00;8.10;;;;;;;;;;5046692;28;20340;-75
2024/03/20 12:50:44;;;;;;;12.77;8.75;;;;;;;;;;5048094;28;20283;-74
2024/03/20 12:53:14;;;;;;;16.50;10.70;;;;;;;;;;5049127;28;20404;-74
2024/03/20 12:55:39;;;;;;;13.00;8.18;;;;;;;;;;5043636;28;20040;-74
2024/03/20 12:58:07;;;;;;;13.65;8.82;;;;;;;;;;5032367;28;20025;-74
2024/03/20 13:00:32;;;;;;;12.18;8.55;;;;;;;;;;5040867;28;20056;-75
2024/03/20 13:02:58;;;;;;;14.52;9.18;;;;;;;;;;5048282;28;20029;-75
2024/03/20 13:05:23;;;;;;;12.73;7.55;;;;;;;;;;5048574;28;20132;-74
2024/03/20 13:07:49;;;;;;;15.00;9.13;;;;;;;;;;5045245;28;20139;-74
2024/03/20 13:10:14;;;;;;;12.97;8.17;;;;;;;;;;5045551;28;20891;-74
2024/03/20 13:12:39;;;;;;;10.90;7.55;;;;;;;;;;5043394;28;20283;-74
2024/03/20 13:15:08;;;;;;;12.20;7.70;;;;;;;;;;5042485;28;20021;-75
2024/03/20 13:17:35;;;;;;;12.70;7.95;;;;;;;;;;5029987;28;20391;-74
2024/03/20 13:20:01;;;;;;;12.93;7.57;;;;;;;;;;5046896;28;20080;-74
2024/03/20 13:22:26;;;;;;;10.52;6.50;;;;;;;;;;5045940;28;20513;-74
2024/03/20 13:24:51;;;;;;;13.18;7.88;;;;;;;;;;5030176;28;20044;-75
2024/03/20 13:27:17;;;;;;;10.80;7.00;;;;;;;;;;5046825;28;20044;-75
2024/03/20 13:29:51;;;;;;;12.15;8.20;;;;;;;;;;5045824;28;20295;-75
2024/03/20 13:32:21;;;;;;;12.00;8.05;;;;;;;;;;5041434;28;20116;-74
2024/03/20 13:34:47;;;;;;;13.63;9.57;;;;;;;;;;5046372;28;20118;-74
2024/03/20 13:37:16;;;;;;;21.35;13.52;;;;;;;;;;5032534;28;20557;-75
2024/03/20 13:39:49;;;;;;;12.43;8.35;;;;;;;;;;5043246;28;20457;-75
2024/03/20 13:42:23;;;;;;;15.18;9.05;;;;;;;;;;5040340;28;20044;-75
2024/03/20 13:44:49;;;;;;;18.92;12.38;;;;;;;;;;5031203;28;20041;-75
2024/03/20 13:47:15;;;;;;;12.38;8.70;;;;;;;;;;5047934;28;20056;-75
2024/03/20 13:49:40;;;;;;;14.55;9.57;;;;;;;;;;5044793;28;20444;-75
2024/03/20 13:52:12;;;;;;;12.70;8.15;;;;;;;;;;5043547;28;20519;-75
2024/03/20 13:54:37;;;;;;;14.18;9.20;;;;;;;;;;5040571;28;20030;-75
2024/03/20 13:57:02;;;;;;;12.97;8.23;;;;;;;;;;5041415;28;20043;-75
2024/03/20 13:59:27;;;;;;;11.20;6.47;;;;;;;;;;5046155;28;20349;-75
2024/03/20 14:01:52;;;;;;;11.60;7.73;;;;;;;;;;5045691;28;20728;-75
2024/03/20 14:04:18;;;;;;;13.17;8.17;;;;;;;;;;5045247;28;20337;-75
2024/03/20 14:06:43;;;;;;;12.53;8.03;;;;;;;;;;5044165;28;20286;-75
2024/03/20 14:09:08;;;;;;;12.43;7.87;;;;;;;;;;5044474;28;20287;-75
2024/03/20 14:11:33;;;;;;;10.07;6.57;;;;;;;;;;5045705;28;20858;-75
2024/03/20 14:13:58;;;;;;;10.27;6.22;;;;;;;;;;5046834;28;20033;-75
2024/03/20 14:16:26;;;;;;;8.07;5.27;;;;;;;;;;5046696;28;20037;-74
2024/03/20 14:18:51;;;;;;;9.98;6.55;;;;;;;;;;5028646;28;20315;-75